createdAt,value
2023-01-06T00:00:25.221Z,79.65
2023-01-06T00:02:52.136Z,79.53
2023-01-06T00:05:19.058Z,79.61
2023-01-06T00:07:45.906Z,78.83
2023-01-06T00:10:12.766Z,78.87
2023-01-06T00:12:39.671Z,79.35
2023-01-06T00:15:06.931Z,79.26
2023-01-06T00:17:33.732Z,79.26
2023-01-06T00:20:00.577Z,79.41
2023-01-06T00:22:27.399Z,79.36
2023-01-06T00:24:54.301Z,79.54
2023-01-06T00:27:21.122Z,79.59
2023-01-06T00:29:49.846Z,79.58
2023-01-06T00:32:19.078Z,79.31
2023-01-06T00:34:45.984Z,79.45
2023-01-06T00:37:12.810Z,79.54
2023-01-06T00:39:39.633Z,78.86
2023-01-06T00:42:06.930Z,79.07
2023-01-06T00:44:34.711Z,79.50
2023-01-06T00:47:01.632Z,79.40
2023-01-06T00:49:28.565Z,79.10
2023-01-06T00:51:55.460Z,79.31
2023-01-06T00:54:22.335Z,79.78
2023-01-06T00:56:50.396Z,79.62
2023-01-06T00:59:18.210Z,79.69
2023-01-06T01:01:45.199Z,78.86
2023-01-06T01:04:13.189Z,79.30
2023-01-06T01:06:41.789Z,79.18
2023-01-06T01:09:08.671Z,79.18
2023-01-06T01:11:54.247Z,79.03
2023-01-06T01:14:21.164Z,78.90
2023-01-06T01:16:48.025Z,79.20
2023-01-06T01:19:15.012Z,79.26
2023-01-06T01:21:41.786Z,79.43
2023-01-06T01:24:08.755Z,79.64
2023-01-06T01:26:35.646Z,78.92
2023-01-06T01:29:02.565Z,79.00
2023-01-06T01:31:29.601Z,78.61
2023-01-06T01:33:56.500Z,78.59
2023-01-06T01:36:23.367Z,78.82
2023-01-06T01:38:50.241Z,79.63
2023-01-06T01:41:17.659Z,79.32
2023-01-06T01:43:48.199Z,79.09
2023-01-06T01:46:17.455Z,79.24
2023-01-06T01:48:44.262Z,79.79
2023-01-06T01:51:13.022Z,79.36
2023-01-06T01:53:41.718Z,79.28
2023-01-06T01:56:09.332Z,80.11
2023-01-06T01:58:41.006Z,79.60
2023-01-06T02:01:08.720Z,79.63
2023-01-06T02:03:37.035Z,79.80
2023-01-06T02:06:05.956Z,79.22
2023-01-06T02:08:32.868Z,79.95
2023-01-06T02:11:02.284Z,79.66
2023-01-06T02:13:29.101Z,79.73
2023-01-06T02:16:03.447Z,79.56
2023-01-06T02:18:45.761Z,79.58
2023-01-06T02:21:25.493Z,78.99
2023-01-06T02:23:58.357Z,79.47
2023-01-06T02:26:44.842Z,79.46
2023-01-06T02:29:22.244Z,80.09
2023-01-06T02:31:58.995Z,79.55
2023-01-06T02:34:44.198Z,80.24
2023-01-06T02:37:26.459Z,80.23
2023-01-06T02:39:56.407Z,79.66
2023-01-06T02:42:29.130Z,80.22
2023-01-06T02:45:04.206Z,79.86
2023-01-06T02:47:45.354Z,79.60
2023-01-06T02:50:21.495Z,79.82
2023-01-06T02:52:54.529Z,79.60
2023-01-06T02:55:27.258Z,79.58
2023-01-06T02:57:55.160Z,80.16
2023-01-06T03:00:28.991Z,80.36
2023-01-06T03:03:04.801Z,79.40
2023-01-06T03:05:32.935Z,78.95
2023-01-06T03:08:01.115Z,79.55
2023-01-06T03:10:28.207Z,79.56
2023-01-06T03:13:09.391Z,79.03
2023-01-06T03:15:36.358Z,79.47
2023-01-06T03:18:03.297Z,79.82
2023-01-06T03:20:30.106Z,79.41
2023-01-06T03:22:57.037Z,80.36
2023-01-06T03:25:23.841Z,80.49
2023-01-06T03:27:50.865Z,80.04
2023-01-06T03:30:22.507Z,79.83
2023-01-06T03:32:59.491Z,80.57
2023-01-06T03:35:42.161Z,80.11
2023-01-06T03:38:22.911Z,79.95
2023-01-06T03:41:16.301Z,80.68
2023-01-06T03:43:43.172Z,80.42
2023-01-06T03:46:10.099Z,79.29
2023-01-06T03:48:40.194Z,79.19
2023-01-06T03:51:07.218Z,80.16
2023-01-06T03:53:43.479Z,79.71
2023-01-06T03:56:17.826Z,79.09
2023-01-06T03:58:45.006Z,79.42
2023-01-06T04:01:11.970Z,80.21
2023-01-06T04:03:39.299Z,79.87
2023-01-06T04:06:06.319Z,79.20
2023-01-06T04:08:33.157Z,79.63
2023-01-06T04:11:02.026Z,80.16
2023-01-06T04:13:29.121Z,79.33
2023-01-06T04:15:56.767Z,79.74
2023-01-06T04:18:23.692Z,79.32
2023-01-06T04:20:50.619Z,80.32
2023-01-06T04:23:23.743Z,79.87
2023-01-06T04:25:50.891Z,80.41
2023-01-06T04:28:25.098Z,80.67
2023-01-06T04:30:52.832Z,79.51
2023-01-06T04:33:19.637Z,79.79
2023-01-06T04:35:48.828Z,79.97
2023-01-06T04:38:18.624Z,80.25
2023-01-06T04:40:45.415Z,79.95
2023-01-06T04:43:16.497Z,80.42
2023-01-06T04:45:43.531Z,80.44
2023-01-06T04:48:10.912Z,80.51
2023-01-06T04:50:37.918Z,79.98
2023-01-06T04:53:05.136Z,80.80
2023-01-06T04:55:31.966Z,79.97
2023-01-06T04:57:58.799Z,80.21
2023-01-06T05:00:25.798Z,80.17
2023-01-06T05:02:52.679Z,80.15
2023-01-06T05:05:19.497Z,81.21
2023-01-06T05:07:46.348Z,80.66
2023-01-06T05:10:13.191Z,81.07
2023-01-06T05:12:40.016Z,80.85
2023-01-06T05:15:07.256Z,80.23
2023-01-06T05:17:34.035Z,81.07
2023-01-06T05:20:00.915Z,80.45
2023-01-06T05:22:27.811Z,81.05
2023-01-06T05:24:54.651Z,80.80
2023-01-06T05:27:21.465Z,80.26
2023-01-06T05:29:48.326Z,80.81
2023-01-06T05:32:15.098Z,80.57
2023-01-06T05:34:41.967Z,80.68
2023-01-06T05:37:08.788Z,80.01
2023-01-06T05:39:35.570Z,79.90
2023-01-06T05:42:02.315Z,80.82
2023-01-06T05:44:29.174Z,80.87
2023-01-06T05:46:55.954Z,80.75
2023-01-06T05:49:22.830Z,80.80
2023-01-06T05:51:49.604Z,80.74
2023-01-06T05:54:16.552Z,79.97
2023-01-06T05:56:43.384Z,79.48
2023-01-06T05:59:10.253Z,80.64
2023-01-06T06:01:37.140Z,80.29
2023-01-06T06:04:04.167Z,80.25
2023-01-06T06:06:31.284Z,79.93
2023-01-06T06:08:58.324Z,80.68
2023-01-06T06:11:25.228Z,80.35
2023-01-06T06:13:52.963Z,79.73
2023-01-06T06:16:20.500Z,80.23
2023-01-06T06:18:53.216Z,80.00
2023-01-06T06:21:23.988Z,80.09
2023-01-06T06:23:52.318Z,79.82
2023-01-06T06:26:19.146Z,80.28
2023-01-06T06:28:45.933Z,79.17
2023-01-06T06:31:15.853Z,80.33
2023-01-06T06:33:42.813Z,79.92
2023-01-06T06:36:15.969Z,79.84
2023-01-06T06:38:45.750Z,79.54
2023-01-06T06:41:12.600Z,80.46
2023-01-06T06:43:39.460Z,79.84
2023-01-06T06:46:06.496Z,80.45
2023-01-06T06:48:33.463Z,80.34
2023-01-06T06:51:00.871Z,79.45
2023-01-06T06:53:27.898Z,80.13
2023-01-06T06:55:55.023Z,79.58
2023-01-06T06:58:21.997Z,79.96
2023-01-06T07:00:48.842Z,79.31
2023-01-06T07:03:15.703Z,80.01
2023-01-06T07:05:43.894Z,79.59
2023-01-06T07:08:11.532Z,79.63
2023-01-06T07:10:38.387Z,80.04
2023-01-06T07:13:05.309Z,79.76
2023-01-06T07:15:32.380Z,80.18
2023-01-06T07:18:02.695Z,80.49
2023-01-06T07:20:29.998Z,80.58
2023-01-06T07:22:56.953Z,80.43
2023-01-06T07:25:23.818Z,80.37
2023-01-06T07:27:57.100Z,81.06
2023-01-06T07:30:24.113Z,81.35
2023-01-06T07:32:50.875Z,80.60
2023-01-06T07:35:17.998Z,80.31
2023-01-06T07:37:44.842Z,81.33
2023-01-06T07:40:11.825Z,80.78
2023-01-06T07:42:38.760Z,80.59
2023-01-06T07:45:05.851Z,80.42
2023-01-06T07:47:32.618Z,81.73
2023-01-06T07:49:59.432Z,81.65
2023-01-06T07:52:26.212Z,81.94
2023-01-06T07:54:53.087Z,81.50
2023-01-06T07:57:19.867Z,81.59
2023-01-06T07:59:46.673Z,81.47
2023-01-06T08:02:13.564Z,81.52
2023-01-06T08:04:40.495Z,81.78
2023-01-06T08:07:07.297Z,81.28
2023-01-06T08:09:34.216Z,81.06
2023-01-06T08:12:01.179Z,81.64
2023-01-06T08:14:28.025Z,80.87
2023-01-06T08:16:54.825Z,81.09
2023-01-06T08:19:21.776Z,80.58
2023-01-06T08:21:48.616Z,81.63
2023-01-06T08:24:15.490Z,80.73
2023-01-06T08:26:42.306Z,81.18
2023-01-06T08:29:09.128Z,81.00
2023-01-06T08:31:35.985Z,81.46
2023-01-06T08:34:02.921Z,81.17
2023-01-06T08:36:29.744Z,80.88
2023-01-06T08:38:56.591Z,81.03
2023-01-06T08:41:23.549Z,81.97
2023-01-06T08:43:50.430Z,82.03
2023-01-06T08:46:18.188Z,81.12
2023-01-06T08:48:45.474Z,80.82
2023-01-06T08:51:13.167Z,80.98
2023-01-06T08:53:40.008Z,81.91
2023-01-06T08:56:11.896Z,82.19
2023-01-06T08:58:38.727Z,81.78
2023-01-06T09:01:05.625Z,81.26
2023-01-06T09:03:32.510Z,82.38
2023-01-06T09:05:59.378Z,81.30
2023-01-06T09:08:26.284Z,82.07
2023-01-06T09:10:53.350Z,81.24
2023-01-06T09:13:20.183Z,82.35
2023-01-06T09:15:49.240Z,81.62
2023-01-06T09:18:16.274Z,82.35
2023-01-06T09:20:43.131Z,82.09
2023-01-06T09:23:10.088Z,81.21
2023-01-06T09:25:37.112Z,81.67
2023-01-06T09:28:04.085Z,82.04
2023-01-06T09:30:30.984Z,81.86
2023-01-06T09:32:57.927Z,81.87
2023-01-06T09:35:24.831Z,81.82
2023-01-06T09:37:51.757Z,81.86
2023-01-06T09:40:19.311Z,81.04
2023-01-06T09:42:49.573Z,81.83
2023-01-06T09:45:17.648Z,82.10
2023-01-06T09:47:45.842Z,80.57
2023-01-06T09:50:20.328Z,80.98
2023-01-06T09:52:49.346Z,80.59
2023-01-06T09:55:31.034Z,81.30
2023-01-06T09:58:02.770Z,80.91
2023-01-06T10:00:34.827Z,80.10
2023-01-06T10:03:01.871Z,80.52
2023-01-06T10:05:32.723Z,80.89
2023-01-06T10:07:59.688Z,80.52
2023-01-06T10:10:29.861Z,80.82
2023-01-06T10:13:19.927Z,80.48
2023-01-06T10:16:07.157Z,79.88
2023-01-06T10:18:47.008Z,79.81
2023-01-06T10:21:17.829Z,80.17
2023-01-06T10:23:51.515Z,79.41
2023-01-06T10:26:21.915Z,79.61
2023-01-06T10:28:53.394Z,80.22
2023-01-06T10:31:27.405Z,80.36
2023-01-06T10:33:56.170Z,79.70
2023-01-06T10:36:29.231Z,79.91
2023-01-06T10:38:56.378Z,79.79
2023-01-06T10:41:38.801Z,79.60
2023-01-06T10:44:06.328Z,79.99
2023-01-06T10:46:36.700Z,79.34
2023-01-06T10:49:03.960Z,79.36
2023-01-06T10:51:35.537Z,79.57
2023-01-06T10:54:05.937Z,79.27
2023-01-06T10:56:32.863Z,79.59
2023-01-06T10:59:03.232Z,78.54
2023-01-06T11:01:30.460Z,79.49
2023-01-06T11:04:08.154Z,79.06
2023-01-06T11:06:35.450Z,79.52
2023-01-06T11:09:09.635Z,78.81
2023-01-06T11:11:45.194Z,78.67
2023-01-06T11:14:13.763Z,79.31
2023-01-06T11:16:40.761Z,78.81
2023-01-06T11:19:08.356Z,79.54
2023-01-06T11:21:45.584Z,78.58
2023-01-06T11:24:24.755Z,78.62
2023-01-06T11:26:53.578Z,78.96
2023-01-06T11:29:31.088Z,79.59
2023-01-06T11:32:00.055Z,78.44
2023-01-06T11:34:27.607Z,79.18
2023-01-06T11:36:54.845Z,78.99
2023-01-06T11:39:24.739Z,78.65
2023-01-06T11:41:51.821Z,78.76
2023-01-06T11:44:23.812Z,78.74
2023-01-06T11:46:56.521Z,79.14
2023-01-06T11:49:29.304Z,78.50
2023-01-06T11:52:07.654Z,79.23
2023-01-06T11:54:36.199Z,79.37
2023-01-06T11:57:21.358Z,79.09
2023-01-06T11:59:57.416Z,79.11
2023-01-06T12:02:26.302Z,79.50
2023-01-06T12:04:53.514Z,79.26
2023-01-06T12:07:39.373Z,78.85
2023-01-06T12:10:16.560Z,79.18
2023-01-06T12:12:43.873Z,79.17
2023-01-06T12:15:13.880Z,78.98
2023-01-06T12:17:43.715Z,78.20
2023-01-06T12:20:13.733Z,79.18
2023-01-06T12:22:40.990Z,78.70
2023-01-06T12:25:16.596Z,79.22
2023-01-06T12:27:53.653Z,78.56
2023-01-06T12:30:26.872Z,79.12
2023-01-06T12:32:54.902Z,79.36
2023-01-06T12:35:23.455Z,78.71
2023-01-06T12:37:54.792Z,79.29
2023-01-06T12:40:23.925Z,79.32
2023-01-06T12:43:00.855Z,78.95
2023-01-06T12:45:37.850Z,78.77
2023-01-06T12:48:18.123Z,78.69
2023-01-06T12:50:49.995Z,78.73
2023-01-06T12:53:21.219Z,79.21
2023-01-06T12:55:48.465Z,79.05
2023-01-06T12:58:21.223Z,79.15
2023-01-06T13:00:48.225Z,79.13
2023-01-06T13:03:21.400Z,78.89
2023-01-06T13:05:48.411Z,79.03
2023-01-06T13:08:18.987Z,80.00
2023-01-06T13:10:49.985Z,79.32
2023-01-06T13:13:29.381Z,79.03
2023-01-06T13:15:57.137Z,79.38
2023-01-06T13:18:29.077Z,79.40
2023-01-06T13:20:58.151Z,79.90
2023-01-06T13:23:44.131Z,79.67
2023-01-06T13:26:14.185Z,79.75
2023-01-06T13:28:50.584Z,79.46
2023-01-06T13:31:23.417Z,79.60
2023-01-06T13:33:53.560Z,79.47
2023-01-06T13:36:38.618Z,79.75
2023-01-06T13:39:16.780Z,79.91
2023-01-06T13:41:44.100Z,79.89
2023-01-06T13:44:15.527Z,80.32
2023-01-06T13:46:42.410Z,79.67
2023-01-06T13:49:10.287Z,80.57
2023-01-06T13:51:38.366Z,80.14
2023-01-06T13:54:05.452Z,79.97
2023-01-06T13:56:35.352Z,80.26
2023-01-06T13:59:18.524Z,79.81
2023-01-06T14:01:45.577Z,79.93
2023-01-06T14:04:31.219Z,80.33
2023-01-06T14:06:58.119Z,79.80
2023-01-06T14:09:24.948Z,79.95
2023-01-06T14:11:51.816Z,80.43
2023-01-06T14:14:30.533Z,80.11
2023-01-06T14:16:57.385Z,79.74
2023-01-06T14:19:31.213Z,79.57
2023-01-06T14:22:14.285Z,80.18
2023-01-06T14:24:48.438Z,79.81
2023-01-06T14:27:15.468Z,79.98
2023-01-06T14:29:42.500Z,79.70
2023-01-06T14:32:10.282Z,80.18
2023-01-06T14:34:38.968Z,80.42
2023-01-06T14:37:05.992Z,80.03
2023-01-06T14:39:32.832Z,80.43
2023-01-06T14:42:03.494Z,80.07
2023-01-06T14:44:47.164Z,80.37
2023-01-06T14:47:19.033Z,79.99
2023-01-06T14:49:58.890Z,80.88
2023-01-06T14:52:46.166Z,80.32
2023-01-06T14:55:18.000Z,81.02
2023-01-06T14:57:45.102Z,80.59
2023-01-06T15:00:16.664Z,80.42
2023-01-06T15:02:50.453Z,80.49
2023-01-06T15:05:21.816Z,81.09
2023-01-06T15:07:58.903Z,80.53
2023-01-06T15:10:27.220Z,80.76
2023-01-06T15:12:57.095Z,80.58
2023-01-06T15:15:25.243Z,80.88
2023-01-06T15:17:52.373Z,81.07
2023-01-06T15:20:19.464Z,80.40
2023-01-06T15:22:47.436Z,80.34
2023-01-06T15:25:21.640Z,81.22
2023-01-06T15:27:49.274Z,80.32
2023-01-06T15:30:17.235Z,81.06
2023-01-06T15:32:44.276Z,80.41
2023-01-06T15:35:14.857Z,80.93
2023-01-06T15:37:41.680Z,80.45
2023-01-06T15:40:08.806Z,80.94
2023-01-06T15:42:36.401Z,80.78
2023-01-06T15:45:04.320Z,80.65
2023-01-06T15:47:34.771Z,80.67
2023-01-06T15:50:08.352Z,81.56
2023-01-06T15:52:39.520Z,81.20
2023-01-06T15:55:07.106Z,81.07
2023-01-06T15:57:35.466Z,81.33
2023-01-06T16:00:10.409Z,80.79
2023-01-06T16:02:37.891Z,81.24
2023-01-06T16:05:05.234Z,81.16
2023-01-06T16:07:35.385Z,81.64
2023-01-06T16:10:02.532Z,81.45
2023-01-06T16:12:29.468Z,81.54
2023-01-06T16:14:56.410Z,80.77
2023-01-06T16:17:23.847Z,81.17
2023-01-06T16:19:52.384Z,81.14
2023-01-06T16:22:25.369Z,81.48
2023-01-06T16:24:52.329Z,80.88
2023-01-06T16:27:25.362Z,81.41
2023-01-06T16:30:10.358Z,81.51
2023-01-06T16:32:40.895Z,81.14
2023-01-06T16:35:11.567Z,81.09
2023-01-06T16:37:38.536Z,81.58
2023-01-06T16:40:05.694Z,81.23
2023-01-06T16:42:39.884Z,81.24
2023-01-06T16:45:09.919Z,81.23
2023-01-06T16:47:36.869Z,81.52
2023-01-06T16:50:24.152Z,81.71
2023-01-06T16:52:51.972Z,81.02
2023-01-06T16:55:19.192Z,80.83
2023-01-06T16:57:49.661Z,81.12
2023-01-06T17:00:20.807Z,81.47
2023-01-06T17:02:47.967Z,81.27
2023-01-06T17:05:17.547Z,81.05
2023-01-06T17:07:44.520Z,80.84
2023-01-06T17:10:18.376Z,81.25
2023-01-06T17:13:05.334Z,81.20
2023-01-06T17:15:32.181Z,81.64
2023-01-06T17:17:58.942Z,81.56
2023-01-06T17:20:25.767Z,82.22
2023-01-06T17:22:52.823Z,82.11
2023-01-06T17:25:20.389Z,82.48
2023-01-06T17:27:48.351Z,82.06
2023-01-06T17:30:15.812Z,81.31
2023-01-06T17:32:43.608Z,82.05
2023-01-06T17:35:37.054Z,81.90
2023-01-06T17:38:13.875Z,82.20
2023-01-06T17:40:40.827Z,82.84
2023-01-06T17:43:26.628Z,81.92
2023-01-06T17:45:53.521Z,82.49
2023-01-06T17:48:20.351Z,82.56
2023-01-06T17:50:48.601Z,82.78
2023-01-06T17:53:36.730Z,83.27
2023-01-06T17:56:04.905Z,82.51
2023-01-06T17:58:32.178Z,82.85
2023-01-06T18:00:59.288Z,83.02
2023-01-06T18:03:26.875Z,82.83
2023-01-06T18:05:58.110Z,83.34
2023-01-06T18:08:25.050Z,82.61
2023-01-06T18:10:52.720Z,82.46
2023-01-06T18:13:26.583Z,82.56
2023-01-06T18:15:53.904Z,83.10
2023-01-06T18:18:21.363Z,83.13
2023-01-06T18:20:51.390Z,82.63
2023-01-06T18:23:19.024Z,82.63
2023-01-06T18:25:45.966Z,82.79
2023-01-06T18:28:19.126Z,82.78
2023-01-06T18:30:46.667Z,82.58
2023-01-06T18:33:13.999Z,82.73
2023-01-06T18:35:41.026Z,82.26
2023-01-06T18:38:07.831Z,82.31
2023-01-06T18:40:34.701Z,82.16
2023-01-06T18:43:01.619Z,82.13
2023-01-06T18:45:39.327Z,82.69
2023-01-06T18:48:11.298Z,81.47
2023-01-06T18:50:38.583Z,82.05
2023-01-06T18:53:14.518Z,82.56
2023-01-06T18:55:42.450Z,82.30
2023-01-06T18:58:12.244Z,82.47
2023-01-06T19:00:43.349Z,82.73
2023-01-06T19:03:23.653Z,82.42
2023-01-06T19:05:51.239Z,82.34
2023-01-06T19:08:18.508Z,82.49
2023-01-06T19:10:46.113Z,83.06
2023-01-06T19:13:14.672Z,83.26
2023-01-06T19:15:41.563Z,83.08
2023-01-06T19:18:15.195Z,82.79
2023-01-06T19:20:42.170Z,82.70
2023-01-06T19:23:17.612Z,82.80
2023-01-06T19:25:48.755Z,83.59
2023-01-06T19:28:22.389Z,83.61
2023-01-06T19:31:02.325Z,84.06
2023-01-06T19:33:34.395Z,83.90
2023-01-06T19:36:05.013Z,84.10
2023-01-06T19:38:43.860Z,84.13
2023-01-06T19:41:16.025Z,84.14
2023-01-06T19:43:43.501Z,83.75
2023-01-06T19:46:15.448Z,84.06
2023-01-06T19:48:42.509Z,83.62
2023-01-06T19:51:21.494Z,84.23
2023-01-06T19:53:55.279Z,84.57
2023-01-06T19:56:23.353Z,84.61
2023-01-06T19:58:54.355Z,84.48
2023-01-06T20:01:21.902Z,84.33
2023-01-06T20:03:49.328Z,84.56
2023-01-06T20:06:16.692Z,84.61
2023-01-06T20:08:43.891Z,85.08
2023-01-06T20:11:11.085Z,83.48
2023-01-06T20:13:38.324Z,83.79
2023-01-06T20:16:05.486Z,83.69
2023-01-06T20:18:32.388Z,83.99
2023-01-06T20:20:59.302Z,83.16
2023-01-06T20:23:26.232Z,83.55
2023-01-06T20:25:53.134Z,83.07
2023-01-06T20:28:19.991Z,83.81
2023-01-06T20:30:57.719Z,83.46
2023-01-06T20:33:24.775Z,83.13
2023-01-06T20:35:51.828Z,82.61
2023-01-06T20:38:19.123Z,83.35
2023-01-06T20:40:50.177Z,83.38
2023-01-06T20:43:20.536Z,83.43
2023-01-06T20:45:47.619Z,83.64
2023-01-06T20:48:14.727Z,82.58
2023-01-06T20:50:44.083Z,83.40
2023-01-06T20:53:11.283Z,83.33
2023-01-06T20:55:38.341Z,84.02
2023-01-06T20:58:07.693Z,84.32
2023-01-06T21:00:34.842Z,83.79
2023-01-06T21:03:05.253Z,84.49
2023-01-06T21:05:36.064Z,83.21
2023-01-06T21:08:03.485Z,83.68
2023-01-06T21:10:35.548Z,84.12
2023-01-06T21:13:02.951Z,83.99
2023-01-06T21:15:36.137Z,82.98
2023-01-06T21:18:11.909Z,83.70
2023-01-06T21:20:44.373Z,83.64
2023-01-06T21:23:12.129Z,84.33
2023-01-06T21:25:39.841Z,83.38
2023-01-06T21:28:08.867Z,84.16
2023-01-06T21:30:36.029Z,83.49
2023-01-06T21:33:06.088Z,83.97
2023-01-06T21:35:36.226Z,84.52
2023-01-06T21:38:19.072Z,84.69
2023-01-06T21:41:31.979Z,84.51
2023-01-06T21:47:27.218Z,83.93
2023-01-06T21:49:56.845Z,84.13
2023-01-06T21:52:26.240Z,84.04
2023-01-06T21:55:15.817Z,83.90
2023-01-06T21:57:46.873Z,84.55
2023-01-06T22:00:17.215Z,84.05
2023-01-06T22:02:46.204Z,83.20
2023-01-06T22:05:14.269Z,84.30
2023-01-06T22:07:43.206Z,84.27
2023-01-06T22:10:12.904Z,84.19
2023-01-06T22:12:40.355Z,84.20
2023-01-06T22:15:08.050Z,84.06
2023-01-06T22:17:35.453Z,83.57
2023-01-06T22:20:03.494Z,83.90
2023-01-06T22:22:32.009Z,84.06
2023-01-06T22:24:59.163Z,83.67
2023-01-06T22:27:27.489Z,83.27
2023-01-06T22:30:01.471Z,83.37
2023-01-06T22:32:29.702Z,83.97
2023-01-06T22:34:59.289Z,83.81
2023-01-06T22:37:28.700Z,84.56
2023-01-06T22:39:58.227Z,84.25
2023-01-06T22:42:26.196Z,84.60
2023-01-06T22:44:57.400Z,84.12
2023-01-06T22:47:31.835Z,83.70
2023-01-06T22:50:14.855Z,83.80
2023-01-06T22:52:43.485Z,83.54
2023-01-06T22:55:13.865Z,83.92
2023-01-06T22:57:41.174Z,83.79
2023-01-06T23:00:11.427Z,83.65
2023-01-06T23:02:39.058Z,84.95
2023-01-06T23:05:07.679Z,84.30
2023-01-06T23:07:41.828Z,84.44
2023-01-06T23:10:12.385Z,84.73
2023-01-06T23:12:40.544Z,83.80
2023-01-06T23:15:08.459Z,84.51
2023-01-06T23:17:39.040Z,83.98
2023-01-06T23:20:06.603Z,84.46
2023-01-06T23:22:33.655Z,84.79
2023-01-06T23:25:01.028Z,84.63
2023-01-06T23:27:30.408Z,84.86
2023-01-06T23:29:59.503Z,84.67
2023-01-06T23:32:26.662Z,84.75
2023-01-06T23:34:53.985Z,84.61
2023-01-06T23:37:21.936Z,84.92
2023-01-06T23:39:49.053Z,84.06
2023-01-06T23:42:16.207Z,84.73
2023-01-06T23:44:44.352Z,84.27
2023-01-06T23:47:11.365Z,84.73
2023-01-06T23:49:38.311Z,84.23
2023-01-06T23:52:05.277Z,84.19
2023-01-06T23:54:32.228Z,84.49
2023-01-06T23:56:59.349Z,84.77
2023-01-06T23:59:26.486Z,84.05
